Aérodrome :
LOGIN :

S'inscrire | Disclaimer

   EN    FR    IT 

 










Légende :    VFR   VFR Marginal   IFR   IFR Intensif   IFR Très Intensif
Visi : 
Plafond : 
>= 8 km
>= 3000ft
5 à 8 km
1000 à 3000 ft
1500m à 5 km
500 à 1000 ft
800 à 1500m
200 à 500 ft
< 800m
< 200 ft
Symboles :   Orages  Brouillard  Fortes neiges  Fortes précipitations  Vent > 20 kt
SIGMETs :   Divers  Orages  Givrage  Turbulence  Onde Orograph.  Cendres Volcan.






- Altitude de l'aérodrome : 33 ft
- Code IATA : MHZ


EGUN - RAF Mildenhall

DERNIER METAR :
  • 171857Z AUTO 00000KT 9999 SCT047 SCT070 11/11 A2975 RMK AO2 RAE56RAB56E56 SLP078 $

METARs EXPIRÉS :
  • 171813Z AUTO 34013G15KT 9999 -RA FEW027 SCT034 BKN042 BKN050 13/12 A2975 RMK AO2 RAB13 SLP078 $
  • 171756Z 26006KT 9999 BKN047 14/11 A2974 RMK AO2A SLP074 60005 T01380110 10143 20111 53005 $
  • 171656Z 26005KT 9999 FEW030 14/11 A2973 RMK AO2A DZB01E09DZB09E09RAB10E11RAB11E11RAB13E26RAB28E32RAB32E32RAB35E37RAB37E37 SLP071 P0000 T01380110 $
  • 171637Z 27007KT 9999 SCT020 14/12 A2973 RMK AO2A DZB01E09DZB09E09RAB10E11RAB11E11RAB13E26RAB28E32RAB32E32RAB35E37RA B37 SLP071 $

TAF AMD TAF EGUN
Valide du 17 à 17h jusqu'au 18 à 18h UTC


171734Z 1717/1818 30009KT 9999 SCT030 QNH2966INS
TEMPO 1717/1719 30010G15KT 8000 -TSRA BKN020CB
BECMG 1720/1721 29006KT 6000 BR SCT060 QNH2979INS
BECMG 1805/1806 25010G15KT 8000 -SHRA BKN030 QNH2989INS
BECMG 1810/1811 28009KT 9999 NSW SCT030 QNH2991INS
TEMPO 1812/1818 8000 -TSRA BKN020CB TX13/1812Z TN05/1803Z



MET'MAP, la Météo Aéronautique d'un coup d'oeil ! - Copyright ORBIFLY Décembre 2007 - Disclaimer

ORBIFLY MET'MAP TEAM :

Programmation & Développement : Alexandra Zaïnal
Sur une idée originale de : Baudouin d'Aumeries
Assistance à la programmation : Marc-Olivier Méhu
Soutien technique & logistique : Manuel Goepfert

Contact : metmap@orbifly.com




SOURCES & CREDITS :

   NOAA